Time;durP1;ratioP1;P1;durP2;ratioP2;P2;SDS_P1;SDS_P2;PMS_P1;PMS_P2;Temp;Humidity;BMP_temperature;BMP_pressure;BME280_temperature;BME280_humidity;BME280_pressure;Samples;Min_cycle;Max_cycle;Signal;HPM_P1;HPM_P2
2022/10/27 00:00:32;;;;;;;;;;;;;;;14.42;58.82;100624.63;4932063;29;19919;-81
2022/10/27 00:02:58;;;;;;;;;;;;;;;14.56;58.13;100625.28;4931329;29;20392;-81
2022/10/27 00:05:23;;;;;;;;;;;;;;;14.55;58.58;100631.50;4931746;29;19974;-81
2022/10/27 00:07:48;;;;;;;;;;;;;;;14.59;59.06;100635.84;4931920;29;20349;-82
2022/10/27 00:10:14;;;;;;;;;;;;;;;14.60;58.94;100632.34;4912738;29;20369;-81
2022/10/27 00:12:39;;;;;;;;;;;;;;;14.67;58.88;100627.78;4912492;29;19919;-82
2022/10/27 00:15:05;;;;;;;;;;;;;;;14.55;59.12;100625.31;4912414;29;19919;-81
2022/10/27 00:17:30;;;;;;;;;;;;;;;14.65;58.94;100626.94;4919046;29;20816;-81
2022/10/27 00:19:55;;;;;;;;;;;;;;;14.74;58.69;100626.78;4913888;29;19922;-81
2022/10/27 00:22:21;;;;;;;;;;;;;;;14.66;59.19;100626.06;4924433;29;20697;-81
2022/10/27 00:24:46;;;;;;;;;;;;;;;14.60;58.99;100635.00;4921683;29;19934;-81
2022/10/27 00:27:11;;;;;;;;;;;;;;;14.45;59.84;100625.47;4912390;29;19919;-81
2022/10/27 00:29:36;;;;;;;;;;;;;;;14.50;59.08;100623.63;4926890;29;20017;-80
2022/10/27 00:32:02;;;;;;;;;;;;;;;14.33;59.54;100625.66;4931185;29;19923;-81
2022/10/27 00:34:27;;;;;;;;;;;;;;;14.36;59.98;100622.09;4929862;29;19923;-83
2022/10/27 00:36:52;;;;;;;;;;;;;;;14.42;59.66;100614.03;4920024;29;19923;-82
2022/10/27 00:39:18;;;;;;;;;;;;;;;14.48;59.29;100625.41;4912312;29;20700;-83
2022/10/27 00:41:43;;;;;;;;;;;;;;;14.41;59.12;100614.91;4895136;29;19919;-81
2022/10/27 00:44:27;;;;;;;;;;;;;;;14.38;59.80;100622.94;4912090;29;19926;-81
2022/10/27 00:46:53;;;;;;;;;;;;;;;14.38;59.51;100620.28;4911974;29;19978;-81
2022/10/27 00:49:21;;;;;;;;;;;;;;;14.53;59.42;100627.13;4912226;29;20389;-81
2022/10/27 00:51:51;;;;;;;;;;;;;;;14.55;59.23;100633.28;4926633;29;20816;-81
2022/10/27 00:54:17;;;;;;;;;;;;;;;14.47;59.42;100625.44;4922265;29;20294;-81
2022/10/27 00:56:44;;;;;;;;;;;;;;;14.46;59.84;100637.84;4914004;29;19923;-81
2022/10/27 00:59:10;;;;;;;;;;;;;;;14.46;59.95;100626.34;4910676;29;19919;-81
2022/10/27 01:01:35;;;;;;;;;;;;;;;14.18;60.66;100626.78;4911938;29;19970;-81
2022/10/27 01:04:01;;;;;;;;;;;;;;;14.25;60.31;100630.22;4926861;29;20291;-81
2022/10/27 01:06:27;;;;;;;;;;;;;;;14.26;60.33;100627.53;4930229;29;19930;-81
2022/10/27 01:08:52;;;;;;;;;;;;;;;14.19;61.08;100631.16;4931008;29;20720;-80
2022/10/27 01:11:18;;;;;;;;;;;;;;;14.23;60.53;100634.69;4930363;29;19929;-80
2022/10/27 01:13:43;;;;;;;;;;;;;;;14.20;60.88;100627.63;4930445;29;20013;-82
2022/10/27 01:16:12;;;;;;;;;;;;;;;14.13;60.81;100634.81;4930256;29;19923;-82
2022/10/27 01:18:52;;;;;;;;;;;;;;;14.27;60.11;100624.00;4929523;29;19954;-81
2022/10/27 01:21:20;;;;;;;;;;;;;;;14.39;59.82;100627.34;4926621;29;20014;-81
2022/10/27 01:24:04;;;;;;;;;;;;;;;14.29;59.65;100634.59;4912070;29;19925;-81
2022/10/27 01:26:40;;;;;;;;;;;;;;;14.38;59.52;100629.13;4911542;29;21230;-81
2022/10/27 01:29:24;;;;;;;;;;;;;;;14.35;59.42;100626.53;4918718;29;19930;-81
2022/10/27 01:31:58;;;;;;;;;;;;;;;14.56;59.13;100635.03;4930220;29;19938;-81
2022/10/27 01:34:36;;;;;;;;;;;;;;;14.56;59.90;100637.69;4930265;29;19926;-81
2022/10/27 01:37:10;;;;;;;;;;;;;;;14.34;59.72;100632.72;4930488;29;19969;-82
2022/10/27 01:39:40;;;;;;;;;;;;;;;14.41;59.65;100645.00;4930028;29;19925;-81
2022/10/27 01:42:15;;;;;;;;;;;;;;;14.31;59.42;100646.91;4929820;29;19988;-80
2022/10/27 01:44:44;;;;;;;;;;;;;;;14.32;59.63;100638.06;4929869;29;19914;-81
2022/10/27 01:47:11;;;;;;;;;;;;;;;14.36;59.53;100643.31;4929760;29;19919;-80
2022/10/27 01:49:37;;;;;;;;;;;;;;;14.25;59.10;100647.00;4930115;29;20036;-81
2022/10/27 01:52:04;;;;;;;;;;;;;;;14.12;59.64;100646.31;4913753;29;19915;-80
2022/10/27 01:54:29;;;;;;;;;;;;;;;14.20;58.91;100656.81;4925240;29;19926;-81
2022/10/27 01:57:01;;;;;;;;;;;;;;;14.36;59.00;100656.59;4930202;29;20594;-81
2022/10/27 01:59:39;;;;;;;;;;;;;;;14.24;58.62;100661.19;4929589;29;20013;-81
2022/10/27 02:02:19;;;;;;;;;;;;;;;14.22;58.76;100662.09;4929601;29;20460;-82
2022/10/27 02:04:53;;;;;;;;;;;;;;;14.16;59.02;100663.06;4929548;29;19923;-81
2022/10/27 02:07:32;;;;;;;;;;;;;;;14.11;59.02;100671.09;4929186;29;19919;-80
2022/10/27 02:10:05;;;;;;;;;;;;;;;14.18;59.37;100671.00;4930590;29;19974;-80
2022/10/27 02:12:32;;;;;;;;;;;;;;;14.38;58.68;100670.69;4933718;29;19918;-81
2022/10/27 02:14:59;;;;;;;;;;;;;;;14.29;58.72;100669.94;4916199;29;19957;-80
2022/10/27 02:17:26;;;;;;;;;;;;;;;14.25;58.59;100670.88;4914713;29;19923;-80
2022/10/27 02:19:53;;;;;;;;;;;;;;;14.18;59.18;100671.88;4915276;29;19978;-80
2022/10/27 02:22:19;;;;;;;;;;;;;;;14.22;58.87;100675.38;4914764;29;19992;-80
2022/10/27 02:24:45;;;;;;;;;;;;;;;14.36;59.15;100669.84;4916953;29;20365;-81
2022/10/27 02:27:15;;;;;;;;;;;;;;;14.37;58.73;100667.19;4933366;29;19919;-80
2022/10/27 02:29:43;;;;;;;;;;;;;;;14.59;58.86;100674.81;4933606;29;19961;-80
2022/10/27 02:32:10;;;;;;;;;;;;;;;14.48;58.73;100682.94;4933139;29;19915;-80
2022/10/27 02:34:36;;;;;;;;;;;;;;;14.39;58.08;100689.25;4933220;29;20017;-80
2022/10/27 02:37:02;;;;;;;;;;;;;;;14.56;58.33;100688.13;4933828;29;20009;-82
2022/10/27 02:39:27;;;;;;;;;;;;;;;14.58;58.64;100691.63;4933862;29;19918;-80
2022/10/27 02:41:52;;;;;;;;;;;;;;;14.34;58.79;100693.75;4934890;29;20041;-80
2022/10/27 02:44:18;;;;;;;;;;;;;;;14.25;59.33;100694.75;4935257;29;19918;-80
2022/10/27 02:46:43;;;;;;;;;;;;;;;14.34;58.90;100699.06;4934190;29;19923;-82
2022/10/27 02:49:08;;;;;;;;;;;;;;;14.29;58.82;100700.94;4933349;29;19926;-81
2022/10/27 02:51:34;;;;;;;;;;;;;;;14.36;59.20;100702.56;4922787;29;19919;-81
2022/10/27 02:53:59;;;;;;;;;;;;;;;14.36;59.30;100705.22;4914324;29;19918;-81
2022/10/27 02:56:24;;;;;;;;;;;;;;;14.44;59.13;100705.13;4914404;29;20528;-81
2022/10/27 02:58:50;;;;;;;;;;;;;;;14.40;58.62;100704.28;4913916;29;19919;-81
2022/10/27 03:01:15;;;;;;;;;;;;;;;14.21;58.44;100703.69;4923028;29;19962;-80
2022/10/27 03:03:40;;;;;;;;;;;;;;;14.04;58.93;100711.88;4916068;29;19950;-80
2022/10/27 03:06:06;;;;;;;;;;;;;;;14.03;58.82;100710.13;4932727;29;19923;-79
2022/10/27 03:08:31;;;;;;;;;;;;;;;14.05;59.14;100707.44;4933206;29;19914;-79
2022/10/27 03:10:56;;;;;;;;;;;;;;;13.96;59.77;100716.38;4932413;29;19926;-80
2022/10/27 03:13:21;;;;;;;;;;;;;;;13.85;59.60;100715.66;4932748;29;20456;-80
2022/10/27 03:15:47;;;;;;;;;;;;;;;13.92;59.48;100731.47;4932653;29;19918;-81
2022/10/27 03:18:12;;;;;;;;;;;;;;;13.90;59.85;100730.63;4931984;29;19922;-80
2022/10/27 03:20:38;;;;;;;;;;;;;;;13.83;59.71;100728.06;4932880;29;19922;-79
2022/10/27 03:23:03;;;;;;;;;;;;;;;13.75;59.73;100730.81;4931274;29;20449;-80
2022/10/27 03:25:28;;;;;;;;;;;;;;;13.70;59.19;100736.16;4932615;29;19965;-80
2022/10/27 03:27:53;;;;;;;;;;;;;;;13.67;60.04;100730.88;4932344;29;20345;-81
2022/10/27 03:30:19;;;;;;;;;;;;;;;13.72;59.21;100730.84;4931019;29;19977;-81
2022/10/27 03:32:45;;;;;;;;;;;;;;;13.63;60.27;100733.59;4932260;29;19919;-81
2022/10/27 03:35:10;;;;;;;;;;;;;;;13.70;59.79;100733.50;4932428;29;19934;-86
2022/10/27 03:37:35;;;;;;;;;;;;;;;13.67;59.38;100732.66;4916429;29;20307;-80
2022/10/27 03:40:01;;;;;;;;;;;;;;;13.60;59.75;100731.84;4913305;29;19919;-82
2022/10/27 03:42:26;;;;;;;;;;;;;;;13.63;59.26;100737.09;4930440;29;20021;-85
2022/10/27 03:44:51;;;;;;;;;;;;;;;13.47;59.66;100733.75;4929950;29;20614;-80
2022/10/27 03:47:17;;;;;;;;;;;;;;;13.49;60.05;100733.75;4936310;29;19926;-81
2022/10/27 03:49:42;;;;;;;;;;;;;;;13.36;60.26;100738.25;4941278;29;19922;-81
2022/10/27 03:52:08;;;;;;;;;;;;;;;13.40;60.43;100735.56;4915128;29;19954;-82
2022/10/27 03:54:33;;;;;;;;;;;;;;;13.33;60.62;100739.19;4916479;29;19947;-83
2022/10/27 03:56:58;;;;;;;;;;;;;;;13.38;60.43;100742.66;4929705;29;20012;-81
2022/10/27 03:59:24;;;;;;;;;;;;;;;13.30;59.96;100749.78;4934901;29;19977;-84
2022/10/27 04:01:49;;;;;;;;;;;;;;;13.22;60.09;100751.63;4931560;29;20325;-81
2022/10/27 04:04:14;;;;;;;;;;;;;;;13.38;59.94;100752.41;4913850;29;19929;-81
2022/10/27 04:06:40;;;;;;;;;;;;;;;13.41;59.78;100755.88;4931296;29;20321;-81
2022/10/27 04:09:05;;;;;;;;;;;;;;;13.25;60.15;100759.53;4931630;29;19918;-81
2022/10/27 04:11:31;;;;;;;;;;;;;;;13.32;60.06;100773.63;4931992;29;20016;-83
2022/10/27 04:13:56;;;;;;;;;;;;;;;13.25;59.96;100778.06;4930577;29;19929;-81
2022/10/27 04:16:21;;;;;;;;;;;;;;;13.16;60.41;100775.50;4931851;29;19922;-81
2022/10/27 04:18:47;;;;;;;;;;;;;;;13.21;60.62;100776.38;4931836;29;19914;-84
2022/10/27 04:21:13;;;;;;;;;;;;;;;13.21;60.52;100777.25;4931099;29;19922;-83
2022/10/27 04:23:38;;;;;;;;;;;;;;;13.10;60.75;100771.16;4929141;29;19941;-83
2022/10/27 04:26:04;;;;;;;;;;;;;;;13.14;60.49;100774.66;4951719;29;19925;-82
2022/10/27 04:28:29;;;;;;;;;;;;;;;13.02;61.07;100780.91;4937566;29;19922;-82
2022/10/27 04:30:54;;;;;;;;;;;;;;;13.12;61.01;100771.16;4932779;29;19929;-85
2022/10/27 04:33:19;;;;;;;;;;;;;;;13.07;61.12;100779.13;4922534;29;20420;-87
2022/10/27 04:35:45;;;;;;;;;;;;;;;13.03;60.93;100777.38;4916007;29;20394;-86
2022/10/27 04:38:11;;;;;;;;;;;;;;;13.05;61.31;100787.09;4931483;29;19969;-86
2022/10/27 04:40:36;;;;;;;;;;;;;;;13.08;61.16;100783.50;4927988;29;20310;-85
2022/10/27 04:43:02;;;;;;;;;;;;;;;13.12;61.20;100792.34;4930661;29;19919;-85
2022/10/27 04:45:28;;;;;;;;;;;;;;;13.07;61.15;100800.31;4931332;29;20013;-83
2022/10/27 04:47:53;;;;;;;;;;;;;;;13.01;61.13;100801.25;4930833;29;20061;-87
2022/10/27 04:50:18;;;;;;;;;;;;;;;13.08;61.20;100813.56;4924827;29;19919;-89
2022/10/27 04:53:00;;;;;;;;;;;;;;;13.11;61.79;100802.03;4921854;29;19934;-86
2022/10/27 04:55:26;;;;;;;;;;;;;;;13.17;61.48;100803.78;4923494;29;19923;-86
2022/10/27 04:57:51;;;;;;;;;;;;;;;13.24;61.45;100803.72;4920246;29;19922;-86
2022/10/27 05:00:17;;;;;;;;;;;;;;;13.31;61.25;100807.19;4924701;29;19923;-86
2022/10/27 05:02:42;;;;;;;;;;;;;;;13.41;61.22;100805.38;4930279;29;19962;-86
2022/10/27 05:05:08;;;;;;;;;;;;;;;13.35;61.66;100811.59;4920810;29;20420;-90
2022/10/27 05:07:33;;;;;;;;;;;;;;;13.38;61.40;100808.06;4929946;29;20389;-86
2022/10/27 05:09:59;;;;;;;;;;;;;;;13.41;62.35;100803.59;4930108;29;20025;-89
2022/10/27 05:12:25;;;;;;;;;;;;;;;13.55;62.91;100805.25;4929844;29;19923;-86
2022/10/27 05:14:50;;;;;;;;;;;;;;;13.66;63.24;100807.78;4911364;29;20000;-89
2022/10/27 05:17:15;;;;;;;;;;;;;;;13.84;62.09;100810.25;4913414;29;20017;-88
2022/10/27 05:19:41;;;;;;;;;;;;;;;14.04;61.95;100807.38;4927762;29;19923;-88
2022/10/27 05:22:06;;;;;;;;;;;;;;;14.17;61.64;100813.41;4929942;29;20314;-88
2022/10/27 05:24:32;;;;;;;;;;;;;;;14.35;61.10;100819.38;4906685;29;19965;-88
2022/10/27 05:26:58;;;;;;;;;;;;;;;14.36;60.40;100821.16;4912284;29;19953;-89
2022/10/27 05:29:24;;;;;;;;;;;;;;;14.32;60.24;100820.31;4929769;29;20681;-89
2022/10/27 05:31:50;;;;;;;;;;;;;;;14.39;60.69;100827.28;4936482;29;19928;-87
2022/10/27 05:34:15;;;;;;;;;;;;;;;14.40;60.70;100828.19;4929904;29;19922;-87
2022/10/27 05:36:41;;;;;;;;;;;;;;;14.42;60.38;100840.53;4928777;29;19926;-88
2022/10/27 05:39:06;;;;;;;;;;;;;;;14.43;60.35;100844.06;4920667;29;19966;-88
2022/10/27 05:41:31;;;;;;;;;;;;;;;14.51;59.69;100844.84;4930124;29;19915;-88
2022/10/27 05:43:58;;;;;;;;;;;;;;;14.38;59.91;100848.53;4930157;29;20270;-88
2022/10/27 05:46:24;;;;;;;;;;;;;;;14.52;60.08;100849.25;4928698;29;19930;-88
2022/10/27 05:48:49;;;;;;;;;;;;;;;14.56;59.23;100850.97;4929479;29;20397;-89
2022/10/27 05:51:14;;;;;;;;;;;;;;;14.48;59.48;100855.50;4912346;29;19918;-88
2022/10/27 05:53:40;;;;;;;;;;;;;;;14.66;59.80;100854.44;4911814;29;19948;-88
2022/10/27 05:56:05;;;;;;;;;;;;;;;14.60;59.71;100860.69;4929944;29;19925;-88
2022/10/27 05:58:30;;;;;;;;;;;;;;;14.66;59.47;100865.06;4929101;29;19926;-88
2022/10/27 06:00:57;;;;;;;;;;;;;;;14.82;59.79;100860.41;4930046;29;20041;-87
2022/10/27 06:03:23;;;;;;;;;;;;;;;14.82;58.63;100874.56;4931465;29;19919;-88
2022/10/27 06:05:49;;;;;;;;;;;;;;;14.95;58.85;100874.38;4930820;29;20384;-87
2022/10/27 06:08:16;;;;;;;;;;;;;;;15.03;58.59;100880.47;4930253;29;19919;-88
2022/10/27 06:10:41;;;;;;;;;;;;;;;15.13;57.91;100882.06;4930059;29;19919;-88
2022/10/27 06:13:09;;;;;;;;;;;;;;;15.15;57.57;100890.03;4912728;29;20310;-88
2022/10/27 06:15:35;;;;;;;;;;;;;;;15.32;57.23;100892.44;4930330;29;19926;-88
2022/10/27 06:18:01;;;;;;;;;;;;;;;15.38;56.52;100889.69;4930373;29;19926;-87
2022/10/27 06:20:26;;;;;;;;;;;;;;;15.51;56.96;100883.28;4916967;29;19923;-87
2022/10/27 06:22:52;;;;;;;;;;;;;;;15.49;55.17;100892.16;4897000;29;20448;-88
2022/10/27 06:25:18;;;;;;;;;;;;;;;15.50;55.65;100889.47;4916721;29;20666;-89
2022/10/27 06:27:44;;;;;;;;;;;;;;;15.37;55.67;100879.97;4910680;29;19919;-88
2022/10/27 06:30:09;;;;;;;;;;;;;;;15.32;55.92;100888.00;4910874;29;20809;-89
2022/10/27 06:32:38;;;;;;;;;;;;;;;15.53;54.76;100889.44;4925955;29;20009;-89
2022/10/27 06:35:04;;;;;;;;;;;;;;;15.63;54.71;100886.63;4925336;29;20041;-89
2022/10/27 06:37:29;;;;;;;;;;;;;;;15.63;53.86;100891.94;4911304;29;20010;-88
2022/10/27 06:39:55;;;;;;;;;;;;;;;15.81;54.18;100890.78;4910813;29;20105;-90
2022/10/27 06:42:21;;;;;;;;;;;;;;;15.56;53.32;100899.16;4911322;29;20428;-87
2022/10/27 06:44:46;;;;;;;;;;;;;;;15.46;54.91;100890.44;4911228;29;20389;-85
2022/10/27 06:47:11;;;;;;;;;;;;;;;15.70;54.59;100889.16;4911005;29;20085;-87
2022/10/27 06:49:37;;;;;;;;;;;;;;;16.15;53.87;100890.16;4910824;29;19915;-85
2022/10/27 06:52:03;;;;;;;;;;;;;;;16.74;52.72;100889.84;4910935;29;19971;-85
2022/10/27 06:54:28;;;;;;;;;;;;;;;17.02;51.96;100897.28;4910773;29;19915;-85
2022/10/27 06:56:53;;;;;;;;;;;;;;;16.97;50.46;100908.91;4910840;29;19926;-86
2022/10/27 06:59:19;;;;;;;;;;;;;;;17.05;51.06;100903.41;4914268;29;19919;-85
2022/10/27 07:01:44;;;;;;;;;;;;;;;17.17;50.75;100910.25;4914173;29;20005;-85
2022/10/27 07:04:09;;;;;;;;;;;;;;;17.68;50.60;100912.56;4914253;29;20370;-85
2022/10/27 07:06:35;;;;;;;;;;;;;;;17.59;50.03;100907.47;4914176;29;20481;-85
2022/10/27 07:09:00;;;;;;;;;;;;;;;17.72;49.49;100911.59;4913927;29;20010;-85
2022/10/27 07:11:27;;;;;;;;;;;;;;;17.61;49.86;100908.31;4914060;29;20010;-85
2022/10/27 07:13:52;;;;;;;;;;;;;;;18.02;50.92;100908.19;4913983;29;20479;-85
2022/10/27 07:16:18;;;;;;;;;;;;;;;18.32;47.96;100905.59;4913423;29;19919;-84
2022/10/27 07:18:44;;;;;;;;;;;;;;;18.31;48.47;100904.75;4913919;29;19925;-83
2022/10/27 07:21:09;;;;;;;;;;;;;;;18.29;48.79;100911.03;4914134;29;20325;-85
2022/10/27 07:23:34;;;;;;;;;;;;;;;18.60;47.74;100905.72;4913851;29;19919;-84
2022/10/27 07:25:59;;;;;;;;;;;;;;;18.36;47.83;100908.16;4913623;29;19919;-85
2022/10/27 07:28:25;;;;;;;;;;;;;;;18.49;47.64;100913.16;4928326;29;19926;-85
2022/10/27 07:30:52;;;;;;;;;;;;;;;18.27;48.28;100905.72;4914052;29;19918;-86
2022/10/27 07:33:18;;;;;;;;;;;;;;;18.33;48.90;100910.03;4913732;29;19919;-85
2022/10/27 07:35:46;;;;;;;;;;;;;;;18.53;49.35;100914.81;4928053;29;19941;-85
2022/10/27 07:38:12;;;;;;;;;;;;;;;18.39;48.48;100916.06;4913670;29;19919;-86
2022/10/27 07:40:37;;;;;;;;;;;;;;;18.36;48.26;100918.84;4913916;29;20312;-85
2022/10/27 07:43:03;;;;;;;;;;;;;;;18.00;48.75;100921.59;4927813;29;20389;-86
2022/10/27 07:45:28;;;;;;;;;;;;;;;18.15;49.08;100923.00;4913241;29;19919;-85
2022/10/27 07:47:55;;;;;;;;;;;;;;;18.40;48.57;100922.31;4913692;29;19923;-86
2022/10/27 07:50:22;;;;;;;;;;;;;;;18.13;48.63;100927.47;4913234;29;19928;-86
2022/10/27 07:52:48;;;;;;;;;;;;;;;18.28;48.75;100922.66;4913179;29;20013;-85
2022/10/27 07:55:15;;;;;;;;;;;;;;;18.49;48.67;100930.06;4913437;29;19915;-85
2022/10/27 07:57:40;;;;;;;;;;;;;;;18.39;48.14;100924.09;4913136;29;19919;-85
2022/10/27 08:00:07;;;;;;;;;;;;;;;18.31;48.57;100928.78;4912846;29;19995;-85
2022/10/27 08:02:32;;;;;;;;;;;;;;;18.33;48.09;100926.06;4913516;29;19918;-86
2022/10/27 08:04:58;;;;;;;;;;;;;;;18.32;48.49;100927.88;4913579;29;20395;-89
2022/10/27 08:07:23;;;;;;;;;;;;;;;18.16;48.08;100932.72;4913731;29;19925;-86
2022/10/27 08:09:49;;;;;;;;;;;;;;;17.86;48.71;100931.72;4913150;29;19919;-85
2022/10/27 08:12:14;;;;;;;;;;;;;;;17.72;49.44;100932.94;4915312;29;20042;-85
2022/10/27 08:14:39;;;;;;;;;;;;;;;17.87;48.99;100926.34;4916021;29;20282;-86
2022/10/27 08:17:05;;;;;;;;;;;;;;;18.08;48.47;100929.41;4930421;29;19945;-86
2022/10/27 08:19:30;;;;;;;;;;;;;;;18.04;48.08;100930.38;4914486;29;19970;-85
2022/10/27 08:21:55;;;;;;;;;;;;;;;18.64;48.12;100926.06;4917534;29;19931;-83
2022/10/27 08:24:21;;;;;;;;;;;;;;;18.78;47.45;100920.31;4925272;29;19915;-86
2022/10/27 08:26:46;;;;;;;;;;;;;;;19.46;45.35;100918.25;4925708;29;20447;-84
2022/10/27 08:29:11;;;;;;;;;;;;;;;19.97;46.73;100920.16;4922031;29;19970;-86
2022/10/27 08:31:36;;;;;;;;;;;;;;;20.19;44.83;100922.97;4912454;29;19934;-86
2022/10/27 08:34:02;;;;;;;;;;;;;;;20.40;44.17;100920.41;4912961;29;20444;-86
2022/10/27 08:36:27;;;;;;;;;;;;;;;20.04;43.62;100912.78;4912467;29;19915;-87
2022/10/27 08:38:52;;;;;;;;;;;;;;;19.98;44.55;100916.53;4912558;29;20312;-86
2022/10/27 08:41:35;;;;;;;;;;;;;;;20.02;43.72;100912.84;4912422;29;19986;-86
2022/10/27 08:44:23;;;;;;;;;;;;;;;20.62;44.20;100912.47;4926596;29;20369;-89
2022/10/27 08:47:09;;;;;;;;;;;;;;;20.96;42.98;100916.59;4912194;29;19922;-86
2022/10/27 08:49:39;;;;;;;;;;;;;;;21.12;42.04;100916.84;4912189;29;19926;-86
2022/10/27 08:52:15;;;;;;;;;;;;;;;21.25;41.87;100917.22;4912567;29;19998;-88
2022/10/27 08:54:45;;;;;;;;;;;;;;;20.93;42.25;100912.22;4912125;29;20018;-85
2022/10/27 08:57:15;;;;;;;;;;;;;;;20.82;42.35;100905.50;4912030;29;19919;-86
2022/10/27 08:59:40;;;;;;;;;;;;;;;20.72;42.80;100910.34;4894747;29;20020;-86
2022/10/27 09:02:21;;;;;;;;;;;;;;;20.31;43.25;100915.41;4911797;29;19959;-86
2022/10/27 09:04:56;;;;;;;;;;;;;;;20.18;42.92;100915.84;4911681;29;20005;-83
2022/10/27 09:07:22;;;;;;;;;;;;;;;20.16;43.63;100914.16;4911914;29;19922;-85
2022/10/27 09:09:57;;;;;;;;;;;;;;;20.13;43.20;100916.94;4912129;29;19915;-84
2022/10/27 09:12:49;;;;;;;;;;;;;;;19.46;44.68;100913.81;4912369;29;20430;-85
2022/10/27 09:15:18;;;;;;;;;;;;;;;19.62;44.36;100915.97;4911243;29;20409;-86
2022/10/27 09:17:55;;;;;;;;;;;;;;;19.54;44.59;100912.66;4911503;29;19919;-87
2022/10/27 09:20:20;;;;;;;;;;;;;;;19.71;45.38;100917.44;4910798;29;19915;-85
2022/10/27 09:22:48;;;;;;;;;;;;;;;19.82;44.39;100918.00;4911750;29;20369;-85
2022/10/27 09:25:18;;;;;;;;;;;;;;;19.91;44.09;100917.69;4911932;29;19911;-85
2022/10/27 09:27:45;;;;;;;;;;;;;;;19.66;44.49;100914.91;4911429;29;21740;-85
2022/10/27 09:30:12;;;;;;;;;;;;;;;19.48;44.62;100911.06;4911469;29;19958;-86
2022/10/27 09:32:39;;;;;;;;;;;;;;;19.66;44.57;100905.13;4911363;29;19926;-87
2022/10/27 09:35:10;;;;;;;;;;;;;;;19.96;43.78;100899.66;4911336;29;19919;-84
2022/10/27 09:37:39;;;;;;;;;;;;;;;20.23;43.59;100896.06;4911865;29;19926;-85
2022/10/27 09:40:09;;;;;;;;;;;;;;;20.21;43.76;100896.97;4911522;29;19950;-85
2022/10/27 09:42:35;;;;;;;;;;;;;;;20.26;43.39;100891.44;4911527;29;19919;-86
2022/10/27 09:45:00;;;;;;;;;;;;;;;20.08;43.01;100889.44;4911561;29;20298;-85
2022/10/27 09:47:28;;;;;;;;;;;;;;;20.19;43.77;100879.22;4911557;29;19964;-85
2022/10/27 09:49:53;;;;;;;;;;;;;;;20.51;43.10;100883.41;4911575;29;19915;-85
2022/10/27 09:52:23;;;;;;;;;;;;;;;20.57;42.51;100883.16;4911573;29;19925;-85
2022/10/27 09:54:52;;;;;;;;;;;;;;;20.49;42.26;100879.03;4911210;29;19922;-84
2022/10/27 09:57:19;;;;;;;;;;;;;;;20.45;42.39;100878.28;4911509;29;19919;-86
2022/10/27 10:00:02;;;;;;;;;;;;;;;20.55;42.25;100881.47;4911097;29;19919;-85
2022/10/27 10:02:51;;;;;;;;;;;;;;;20.50;42.24;100870.94;4911658;29;19959;-87
2022/10/27 10:05:19;;;;;;;;;;;;;;;20.61;42.24;100872.34;4909949;29;19951;-85
2022/10/27 10:07:45;;;;;;;;;;;;;;;20.52;42.70;100874.41;4910771;29;19978;-85
2022/10/27 10:10:24;;;;;;;;;;;;;;;20.76;41.82;100871.78;4925314;29;20009;-88
2022/10/27 10:13:11;;;;;;;;;;;;;;;20.53;43.18;100868.13;4911204;29;19923;-85
2022/10/27 10:15:39;;;;;;;;;;;;;;;20.67;43.16;100859.59;4911344;29;19923;-87
2022/10/27 10:18:18;;;;;;;;;;;;;;;20.72;42.38;100860.28;4911143;29;19926;-86
2022/10/27 10:20:43;;;;;;;;;;;;;;;20.87;42.28;100861.50;4911031;29;20393;-86
2022/10/27 10:23:18;;;;;;;;;;;;;;;20.80;41.92;100859.13;4911018;29;19919;-87
2022/10/27 10:25:46;;;;;;;;;;;;;;;20.95;42.35;100858.50;4911233;29;20356;-86
2022/10/27 10:28:18;;;;;;;;;;;;;;;21.22;41.25;100855.63;4911193;29;20018;-85
2022/10/27 10:30:48;;;;;;;;;;;;;;;21.27;41.92;100850.94;4920358;29;19922;-86
2022/10/27 10:33:15;;;;;;;;;;;;;;;21.43;40.60;100854.75;4933396;29;20068;-86
2022/10/27 10:35:49;;;;;;;;;;;;;;;21.58;40.64;100847.91;4933311;29;19918;-88
2022/10/27 10:38:24;;;;;;;;;;;;;;;21.48;40.99;100853.69;4934092;29;19915;-88
2022/10/27 10:41:08;;;;;;;;;;;;;;;21.70;40.15;100848.31;4934104;29;20370;-85
2022/10/27 10:43:33;;;;;;;;;;;;;;;21.73;40.27;100837.44;4933153;29;19962;-85
2022/10/27 10:45:58;;;;;;;;;;;;;;;21.68;41.21;100837.63;4933391;29;19961;-84
2022/10/27 10:48:38;;;;;;;;;;;;;;;21.84;40.09;100840.53;4933175;29;19919;-85
2022/10/27 10:51:09;;;;;;;;;;;;;;;22.35;39.55;100840.97;4933277;29;19938;-86
2022/10/27 10:53:49;;;;;;;;;;;;;;;22.28;39.19;100839.50;4915848;29;19926;-86
2022/10/27 10:56:19;;;;;;;;;;;;;;;22.28;39.34;100840.34;4933132;29;19921;-87
2022/10/27 10:58:46;;;;;;;;;;;;;;;22.24;38.74;100836.06;4933065;29;20105;-85
2022/10/27 11:01:12;;;;;;;;;;;;;;;22.20;38.72;100828.19;4916416;29;20079;-87
2022/10/27 11:03:42;;;;;;;;;;;;;;;22.24;38.86;100833.38;4933657;29;19993;-87
2022/10/27 11:06:15;;;;;;;;;;;;;;;22.23;39.00;100828.94;4933562;29;20037;-87
2022/10/27 11:08:41;;;;;;;;;;;;;;;22.23;39.03;100822.69;4915763;29;19922;-86
2022/10/27 11:11:12;;;;;;;;;;;;;;;22.52;38.82;100819.56;4933101;29;20324;-87
2022/10/27 11:13:57;;;;;;;;;;;;;;;22.81;37.97;100813.75;4932999;29;19930;-87
2022/10/27 11:16:23;;;;;;;;;;;;;;;22.55;38.73;100809.59;4932203;29;19918;-88
2022/10/27 11:18:48;;;;;;;;;;;;;;;22.57;39.17;100816.66;4932809;29;20360;-86
2022/10/27 11:21:25;;;;;;;;;;;;;;;22.61;38.95;100812.88;4932397;29;19915;-86
2022/10/27 11:23:52;;;;;;;;;;;;;;;22.88;38.73;100808.00;4932624;29;19977;-86
2022/10/27 11:26:27;;;;;;;;;;;;;;;22.73;38.20;100795.28;4912538;29;20354;-85
2022/10/27 11:29:10;;;;;;;;;;;;;;;22.74;38.16;100802.41;4932851;29;19965;-86
2022/10/27 11:31:40;;;;;;;;;;;;;;;23.01;37.71;100802.00;4932296;29;19918;-85
2022/10/27 11:34:08;;;;;;;;;;;;;;;22.94;37.58;100789.78;4932379;29;19923;-86
2022/10/27 11:36:39;;;;;;;;;;;;;;;23.09;37.26;100786.38;4932558;29;19919;-85
2022/10/27 11:39:29;;;;;;;;;;;;;;;22.99;36.99;100788.63;4932699;29;19926;-88
2022/10/27 11:42:01;;;;;;;;;;;;;;;22.83;37.68;100780.44;4931850;29;20428;-85
2022/10/27 11:44:35;;;;;;;;;;;;;;;23.05;37.15;100776.69;4931983;29;19919;-86
2022/10/27 11:47:09;;;;;;;;;;;;;;;23.24;36.66;100768.59;4932425;29;19923;-86
2022/10/27 11:49:46;;;;;;;;;;;;;;;23.19;36.73;100763.44;4932499;29;19922;-86
2022/10/27 11:52:32;;;;;;;;;;;;;;;23.09;36.46;100762.16;4932137;29;19910;-87
2022/10/27 11:54:59;;;;;;;;;;;;;;;23.45;35.79;100752.28;4921681;29;20701;-85
2022/10/27 11:57:28;;;;;;;;;;;;;;;23.36;35.51;100753.66;4932201;29;20663;-85
2022/10/27 11:59:53;;;;;;;;;;;;;;;23.30;35.40;100759.34;4931899;29;19925;-85
2022/10/27 12:02:36;;;;;;;;;;;;;;;23.45;35.10;100752.28;4932057;29;19919;-86
2022/10/27 12:05:19;;;;;;;;;;;;;;;23.59;34.93;100752.44;4932046;29;19918;-85
2022/10/27 12:08:02;;;;;;;;;;;;;;;23.71;35.32;100751.81;4931649;29;19914;-86
2022/10/27 12:10:39;;;;;;;;;;;;;;;23.48;35.85;100752.13;4932201;29;19923;-86
2022/10/27 12:13:13;;;;;;;;;;;;;;;23.57;35.35;100740.88;4931699;29;19941;-86
2022/10/27 12:15:46;;;;;;;;;;;;;;;23.73;35.32;100749.03;4932006;29;19923;-88
2022/10/27 12:18:22;;;;;;;;;;;;;;;23.56;35.71;100739.16;4931735;29;19915;-87
2022/10/27 12:20:50;;;;;;;;;;;;;;;23.68;35.42;100738.50;4931657;29;20449;-86
2022/10/27 12:23:41;;;;;;;;;;;;;;;23.56;34.94;100731.06;4932601;29;19915;-87
2022/10/27 12:26:21;;;;;;;;;;;;;;;23.88;34.32;100744.66;4931630;29;19923;-87
2022/10/27 12:28:47;;;;;;;;;;;;;;;23.80;34.07;100739.63;4932756;29;19919;-88
2022/10/27 12:31:17;;;;;;;;;;;;;;;23.82;34.33;100740.44;4936558;29;19919;-88
2022/10/27 12:33:51;;;;;;;;;;;;;;;24.04;33.76;100744.72;4942894;29;19922;-86
2022/10/27 12:36:39;;;;;;;;;;;;;;;23.84;34.57;100738.56;4934437;29;20406;-86
2022/10/27 12:39:42;;;;;;;;;;;;;;;24.05;34.02;100738.34;4931647;29;19914;-85
2022/10/27 12:42:17;;;;;;;;;;;;;;;24.06;33.66;100740.97;4872769;29;19995;-88